sensor_id;sensor_type;location;lat;lon;timestamp;P1;durP1;ratioP1;P2;durP2;ratioP2
26106;SDS011;13866;50.748;12.630;2023-06-04T00:01:51;2.47;;;2.47;;
26106;SDS011;13866;50.748;12.630;2023-06-04T00:04:17;3.00;;;2.67;;
26106;SDS011;13866;50.748;12.630;2023-06-04T00:06:42;2.57;;;2.47;;
26106;SDS011;13866;50.748;12.630;2023-06-04T00:09:08;3.90;;;3.60;;
26106;SDS011;13866;50.748;12.630;2023-06-04T00:11:34;3.30;;;2.30;;
26106;SDS011;13866;50.748;12.630;2023-06-04T00:14:00;3.40;;;3.30;;
26106;SDS011;13866;50.748;12.630;2023-06-04T00:16:26;3.57;;;3.27;;
26106;SDS011;13866;50.748;12.630;2023-06-04T00:18:51;2.60;;;2.60;;
26106;SDS011;13866;50.748;12.630;2023-06-04T00:21:17;2.83;;;2.60;;
26106;SDS011;13866;50.748;12.630;2023-06-04T00:23:42;3.03;;;3.00;;
26106;SDS011;13866;50.748;12.630;2023-06-04T00:26:07;2.83;;;2.73;;
26106;SDS011;13866;50.748;12.630;2023-06-04T00:28:33;3.33;;;2.63;;
26106;SDS011;13866;50.748;12.630;2023-06-04T00:30:58;3.20;;;3.10;;
26106;SDS011;13866;50.748;12.630;2023-06-04T00:33:24;2.83;;;2.73;;
26106;SDS011;13866;50.748;12.630;2023-06-04T00:35:49;2.70;;;2.70;;
26106;SDS011;13866;50.748;12.630;2023-06-04T00:38:15;3.10;;;2.77;;
26106;SDS011;13866;50.748;12.630;2023-06-04T00:40:40;3.03;;;2.90;;
26106;SDS011;13866;50.748;12.630;2023-06-04T00:43:06;2.30;;;2.30;;
26106;SDS011;13866;50.748;12.630;2023-06-04T00:45:31;2.40;;;2.30;;
26106;SDS011;13866;50.748;12.630;2023-06-04T00:47:57;4.30;;;2.43;;
26106;SDS011;13866;50.748;12.630;2023-06-04T00:50:22;2.40;;;2.40;;
26106;SDS011;13866;50.748;12.630;2023-06-04T00:52:49;2.87;;;2.77;;
26106;SDS011;13866;50.748;12.630;2023-06-04T00:55:15;3.80;;;3.50;;
26106;SDS011;13866;50.748;12.630;2023-06-04T00:57:42;2.80;;;2.80;;
26106;SDS011;13866;50.748;12.630;2023-06-04T01:00:08;2.20;;;2.20;;
26106;SDS011;13866;50.748;12.630;2023-06-04T01:02:34;2.37;;;2.37;;
26106;SDS011;13866;50.748;12.630;2023-06-04T01:05:07;2.90;;;2.90;;
26106;SDS011;13866;50.748;12.630;2023-06-04T01:07:49;2.90;;;2.80;;
26106;SDS011;13866;50.748;12.630;2023-06-04T01:10:15;2.40;;;2.40;;
26106;SDS011;13866;50.748;12.630;2023-06-04T01:12:42;4.80;;;2.20;;
26106;SDS011;13866;50.748;12.630;2023-06-04T01:15:07;3.50;;;2.60;;
26106;SDS011;13866;50.748;12.630;2023-06-04T01:17:37;4.73;;;3.40;;
26106;SDS011;13866;50.748;12.630;2023-06-04T01:27:53;3.33;;;3.33;;
26106;SDS011;13866;50.748;12.630;2023-06-04T01:30:24;4.50;;;4.10;;
26106;SDS011;13866;50.748;12.630;2023-06-04T01:32:52;2.57;;;2.27;;
26106;SDS011;13866;50.748;12.630;2023-06-04T01:35:20;5.50;;;2.47;;
26106;SDS011;13866;50.748;12.630;2023-06-04T01:37:45;3.80;;;2.20;;
26106;SDS011;13866;50.748;12.630;2023-06-04T01:40:11;3.37;;;2.30;;
26106;SDS011;13866;50.748;12.630;2023-06-04T01:42:37;2.50;;;2.50;;
26106;SDS011;13866;50.748;12.630;2023-06-04T01:45:02;2.40;;;2.40;;
26106;SDS011;13866;50.748;12.630;2023-06-04T01:47:28;2.30;;;2.30;;
26106;SDS011;13866;50.748;12.630;2023-06-04T01:49:54;2.60;;;2.60;;
26106;SDS011;13866;50.748;12.630;2023-06-04T01:52:19;2.80;;;2.80;;
26106;SDS011;13866;50.748;12.630;2023-06-04T01:54:46;2.83;;;2.83;;
26106;SDS011;13866;50.748;12.630;2023-06-04T01:57:14;3.10;;;2.90;;
26106;SDS011;13866;50.748;12.630;2023-06-04T01:59:40;2.70;;;2.70;;
26106;SDS011;13866;50.748;12.630;2023-06-04T02:02:07;2.37;;;2.37;;
26106;SDS011;13866;50.748;12.630;2023-06-04T02:04:32;2.70;;;2.53;;
26106;SDS011;13866;50.748;12.630;2023-06-04T02:07:01;2.90;;;2.90;;
26106;SDS011;13866;50.748;12.630;2023-06-04T02:09:27;2.50;;;2.50;;
26106;SDS011;13866;50.748;12.630;2023-06-04T02:11:52;9.07;;;2.67;;
26106;SDS011;13866;50.748;12.630;2023-06-04T02:14:18;2.90;;;2.80;;
26106;SDS011;13866;50.748;12.630;2023-06-04T02:16:43;3.10;;;2.80;;
26106;SDS011;13866;50.748;12.630;2023-06-04T02:19:09;2.40;;;2.30;;
26106;SDS011;13866;50.748;12.630;2023-06-04T02:21:37;3.23;;;2.30;;
26106;SDS011;13866;50.748;12.630;2023-06-04T02:24:03;3.57;;;2.70;;
26106;SDS011;13866;50.748;12.630;2023-06-04T02:26:28;2.20;;;2.10;;
26106;SDS011;13866;50.748;12.630;2023-06-04T02:28:54;2.63;;;2.63;;
26106;SDS011;13866;50.748;12.630;2023-06-04T02:31:19;2.73;;;2.47;;
26106;SDS011;13866;50.748;12.630;2023-06-04T02:33:46;2.70;;;2.53;;
26106;SDS011;13866;50.748;12.630;2023-06-04T02:36:11;8.50;;;2.90;;
26106;SDS011;13866;50.748;12.630;2023-06-04T02:38:37;2.77;;;2.10;;
26106;SDS011;13866;50.748;12.630;2023-06-04T02:41:02;2.50;;;2.40;;
26106;SDS011;13866;50.748;12.630;2023-06-04T02:43:28;5.00;;;2.80;;
26106;SDS011;13866;50.748;12.630;2023-06-04T02:45:53;2.67;;;2.47;;
26106;SDS011;13866;50.748;12.630;2023-06-04T02:48:19;2.40;;;2.40;;
26106;SDS011;13866;50.748;12.630;2023-06-04T02:50:44;2.40;;;2.37;;
26106;SDS011;13866;50.748;12.630;2023-06-04T02:53:10;2.13;;;2.13;;
26106;SDS011;13866;50.748;12.630;2023-06-04T02:55:35;3.90;;;2.20;;
26106;SDS011;13866;50.748;12.630;2023-06-04T02:58:01;8.63;;;3.90;;
26106;SDS011;13866;50.748;12.630;2023-06-04T03:00:27;2.10;;;2.10;;
26106;SDS011;13866;50.748;12.630;2023-06-04T03:02:52;2.40;;;2.40;;
26106;SDS011;13866;50.748;12.630;2023-06-04T03:05:26;3.17;;;2.70;;
26106;SDS011;13866;50.748;12.630;2023-06-04T03:07:52;2.10;;;2.10;;
26106;SDS011;13866;50.748;12.630;2023-06-04T03:10:18;2.50;;;2.50;;
26106;SDS011;13866;50.748;12.630;2023-06-04T03:12:44;1.90;;;1.90;;
26106;SDS011;13866;50.748;12.630;2023-06-04T03:15:10;2.70;;;2.10;;
26106;SDS011;13866;50.748;12.630;2023-06-04T03:17:35;2.23;;;2.23;;
26106;SDS011;13866;50.748;12.630;2023-06-04T03:20:01;2.40;;;2.40;;
26106;SDS011;13866;50.748;12.630;2023-06-04T03:22:29;2.33;;;2.33;;
26106;SDS011;13866;50.748;12.630;2023-06-04T03:24:55;3.00;;;2.90;;
26106;SDS011;13866;50.748;12.630;2023-06-04T03:27:20;2.57;;;2.57;;
26106;SDS011;13866;50.748;12.630;2023-06-04T03:29:46;2.00;;;1.93;;
26106;SDS011;13866;50.748;12.630;2023-06-04T03:32:13;2.53;;;2.43;;
26106;SDS011;13866;50.748;12.630;2023-06-04T03:34:38;2.40;;;2.40;;
26106;SDS011;13866;50.748;12.630;2023-06-04T03:37:04;2.53;;;2.47;;
26106;SDS011;13866;50.748;12.630;2023-06-04T03:39:29;2.43;;;2.43;;
26106;SDS011;13866;50.748;12.630;2023-06-04T03:41:55;6.77;;;2.63;;
26106;SDS011;13866;50.748;12.630;2023-06-04T03:44:21;2.30;;;2.30;;
26106;SDS011;13866;50.748;12.630;2023-06-04T03:46:47;3.23;;;3.03;;
26106;SDS011;13866;50.748;12.630;2023-06-04T03:49:13;2.60;;;2.47;;
26106;SDS011;13866;50.748;12.630;2023-06-04T03:51:39;2.30;;;2.20;;
26106;SDS011;13866;50.748;12.630;2023-06-04T03:54:04;1.83;;;1.83;;
26106;SDS011;13866;50.748;12.630;2023-06-04T03:56:30;1.97;;;1.90;;
26106;SDS011;13866;50.748;12.630;2023-06-04T03:58:56;2.43;;;2.17;;
26106;SDS011;13866;50.748;12.630;2023-06-04T04:01:22;2.20;;;2.10;;
26106;SDS011;13866;50.748;12.630;2023-06-04T04:03:51;2.70;;;2.20;;
26106;SDS011;13866;50.748;12.630;2023-06-04T04:06:17;6.90;;;1.80;;
26106;SDS011;13866;50.748;12.630;2023-06-04T04:08:43;2.87;;;2.57;;
26106;SDS011;13866;50.748;12.630;2023-06-04T04:11:09;2.70;;;2.70;;
26106;SDS011;13866;50.748;12.630;2023-06-04T04:13:35;3.17;;;1.73;;
26106;SDS011;13866;50.748;12.630;2023-06-04T04:16:01;2.43;;;2.17;;
26106;SDS011;13866;50.748;12.630;2023-06-04T04:18:26;2.67;;;2.37;;
26106;SDS011;13866;50.748;12.630;2023-06-04T04:20:52;2.07;;;1.97;;
26106;SDS011;13866;50.748;12.630;2023-06-04T04:23:17;2.60;;;2.07;;
26106;SDS011;13866;50.748;12.630;2023-06-04T04:25:43;2.20;;;2.20;;
26106;SDS011;13866;50.748;12.630;2023-06-04T04:28:09;1.93;;;1.93;;
26106;SDS011;13866;50.748;12.630;2023-06-04T04:30:35;1.67;;;1.67;;
26106;SDS011;13866;50.748;12.630;2023-06-04T04:33:01;2.47;;;2.37;;
26106;SDS011;13866;50.748;12.630;2023-06-04T04:35:27;2.00;;;2.00;;
26106;SDS011;13866;50.748;12.630;2023-06-04T04:37:53;1.83;;;1.83;;
26106;SDS011;13866;50.748;12.630;2023-06-04T04:40:19;2.10;;;1.90;;
26106;SDS011;13866;50.748;12.630;2023-06-04T04:42:45;2.57;;;2.47;;
26106;SDS011;13866;50.748;12.630;2023-06-04T04:45:11;1.77;;;1.77;;
26106;SDS011;13866;50.748;12.630;2023-06-04T04:47:37;4.50;;;2.07;;
26106;SDS011;13866;50.748;12.630;2023-06-04T04:50:03;1.47;;;1.47;;
26106;SDS011;13866;50.748;12.630;2023-06-04T04:52:29;1.70;;;1.60;;
26106;SDS011;13866;50.748;12.630;2023-06-04T04:54:55;2.43;;;2.00;;
26106;SDS011;13866;50.748;12.630;2023-06-04T04:57:22;1.53;;;1.53;;
26106;SDS011;13866;50.748;12.630;2023-06-04T04:59:48;2.87;;;2.27;;
26106;SDS011;13866;50.748;12.630;2023-06-04T05:02:14;2.10;;;2.10;;
26106;SDS011;13866;50.748;12.630;2023-06-04T05:04:40;1.90;;;1.90;;
26106;SDS011;13866;50.748;12.630;2023-06-04T05:07:05;2.23;;;1.83;;
26106;SDS011;13866;50.748;12.630;2023-06-04T05:09:31;3.90;;;3.20;;
26106;SDS011;13866;50.748;12.630;2023-06-04T05:11:56;2.77;;;2.67;;
26106;SDS011;13866;50.748;12.630;2023-06-04T05:14:22;3.30;;;2.30;;
26106;SDS011;13866;50.748;12.630;2023-06-04T05:16:48;2.80;;;2.70;;
26106;SDS011;13866;50.748;12.630;2023-06-04T05:19:14;2.50;;;2.50;;
26106;SDS011;13866;50.748;12.630;2023-06-04T05:21:41;2.33;;;2.13;;
26106;SDS011;13866;50.748;12.630;2023-06-04T05:24:07;2.50;;;2.50;;
26106;SDS011;13866;50.748;12.630;2023-06-04T05:26:32;4.23;;;2.53;;
26106;SDS011;13866;50.748;12.630;2023-06-04T05:28:58;1.93;;;1.93;;
26106;SDS011;13866;50.748;12.630;2023-06-04T05:31:24;2.43;;;2.40;;
26106;SDS011;13866;50.748;12.630;2023-06-04T05:33:51;2.50;;;2.40;;
26106;SDS011;13866;50.748;12.630;2023-06-04T05:36:17;2.77;;;2.57;;
26106;SDS011;13866;50.748;12.630;2023-06-04T05:38:42;2.50;;;2.30;;
26106;SDS011;13866;50.748;12.630;2023-06-04T05:41:08;3.70;;;2.17;;
26106;SDS011;13866;50.748;12.630;2023-06-04T05:43:33;2.80;;;2.23;;
26106;SDS011;13866;50.748;12.630;2023-06-04T05:45:59;3.60;;;2.00;;
26106;SDS011;13866;50.748;12.630;2023-06-04T05:48:25;3.13;;;1.90;;
26106;SDS011;13866;50.748;12.630;2023-06-04T05:50:50;2.00;;;2.00;;
26106;SDS011;13866;50.748;12.630;2023-06-04T05:53:16;3.00;;;2.80;;
26106;SDS011;13866;50.748;12.630;2023-06-04T05:55:41;2.50;;;2.40;;
26106;SDS011;13866;50.748;12.630;2023-06-04T05:58:07;2.37;;;2.37;;
26106;SDS011;13866;50.748;12.630;2023-06-04T06:00:32;2.47;;;2.30;;
26106;SDS011;13866;50.748;12.630;2023-06-04T06:02:58;4.10;;;2.33;;
26106;SDS011;13866;50.748;12.630;2023-06-04T06:05:24;2.17;;;2.10;;
26106;SDS011;13866;50.748;12.630;2023-06-04T06:07:49;2.23;;;1.97;;
26106;SDS011;13866;50.748;12.630;2023-06-04T06:10:15;2.40;;;2.40;;
26106;SDS011;13866;50.748;12.630;2023-06-04T06:12:41;4.60;;;2.47;;
26106;SDS011;13866;50.748;12.630;2023-06-04T06:15:07;2.57;;;2.47;;
26106;SDS011;13866;50.748;12.630;2023-06-04T06:17:33;2.23;;;1.80;;
26106;SDS011;13866;50.748;12.630;2023-06-04T06:19:59;2.53;;;2.43;;
26106;SDS011;13866;50.748;12.630;2023-06-04T06:22:24;2.50;;;2.30;;
26106;SDS011;13866;50.748;12.630;2023-06-04T06:24:50;2.67;;;2.60;;
26106;SDS011;13866;50.748;12.630;2023-06-04T06:27:16;1.97;;;1.97;;
26106;SDS011;13866;50.748;12.630;2023-06-04T06:29:42;2.50;;;2.50;;
26106;SDS011;13866;50.748;12.630;2023-06-04T06:32:08;5.20;;;2.20;;
26106;SDS011;13866;50.748;12.630;2023-06-04T06:34:36;7.27;;;2.30;;
26106;SDS011;13866;50.748;12.630;2023-06-04T06:37:03;4.80;;;2.73;;
26106;SDS011;13866;50.748;12.630;2023-06-04T06:39:28;2.80;;;2.60;;
26106;SDS011;13866;50.748;12.630;2023-06-04T06:41:54;2.47;;;2.47;;
26106;SDS011;13866;50.748;12.630;2023-06-04T06:44:20;5.23;;;3.27;;
26106;SDS011;13866;50.748;12.630;2023-06-04T06:46:45;2.50;;;2.50;;
26106;SDS011;13866;50.748;12.630;2023-06-04T06:49:11;2.30;;;2.10;;
26106;SDS011;13866;50.748;12.630;2023-06-04T06:51:37;2.70;;;2.50;;
26106;SDS011;13866;50.748;12.630;2023-06-04T06:54:02;4.70;;;3.27;;
26106;SDS011;13866;50.748;12.630;2023-06-04T06:56:28;2.37;;;2.27;;
26106;SDS011;13866;50.748;12.630;2023-06-04T06:58:53;3.03;;;2.83;;
26106;SDS011;13866;50.748;12.630;2023-06-04T07:01:19;2.70;;;2.60;;
26106;SDS011;13866;50.748;12.630;2023-06-04T07:03:46;2.10;;;2.10;;
26106;SDS011;13866;50.748;12.630;2023-06-04T07:06:11;2.40;;;2.17;;
26106;SDS011;13866;50.748;12.630;2023-06-04T07:08:36;3.13;;;3.03;;
26106;SDS011;13866;50.748;12.630;2023-06-04T07:11:02;1.93;;;1.70;;
26106;SDS011;13866;50.748;12.630;2023-06-04T07:13:28;11.60;;;3.30;;
26106;SDS011;13866;50.748;12.630;2023-06-04T07:15:56;2.40;;;2.00;;
26106;SDS011;13866;50.748;12.630;2023-06-04T07:18:22;1.90;;;1.90;;
26106;SDS011;13866;50.748;12.630;2023-06-04T07:20:48;1.90;;;1.77;;
26106;SDS011;13866;50.748;12.630;2023-06-04T07:23:14;2.03;;;1.93;;
26106;SDS011;13866;50.748;12.630;2023-06-04T07:25:40;2.13;;;1.53;;
26106;SDS011;13866;50.748;12.630;2023-06-04T07:28:05;13.33;;;2.33;;
26106;SDS011;13866;50.748;12.630;2023-06-04T07:30:31;3.30;;;1.67;;
26106;SDS011;13866;50.748;12.630;2023-06-04T07:32:57;2.00;;;1.50;;
26106;SDS011;13866;50.748;12.630;2023-06-04T07:35:23;2.00;;;1.80;;
26106;SDS011;13866;50.748;12.630;2023-06-04T07:37:49;9.50;;;2.03;;
26106;SDS011;13866;50.748;12.630;2023-06-04T07:40:14;1.50;;;1.50;;
26106;SDS011;13866;50.748;12.630;2023-06-04T07:42:41;1.90;;;1.80;;
26106;SDS011;13866;50.748;12.630;2023-06-04T07:45:07;1.77;;;1.67;;
26106;SDS011;13866;50.748;12.630;2023-06-04T07:47:35;1.47;;;1.47;;
26106;SDS011;13866;50.748;12.630;2023-06-04T07:50:01;3.70;;;1.90;;
26106;SDS011;13866;50.748;12.630;2023-06-04T07:52:27;1.30;;;1.30;;
26106;SDS011;13866;50.748;12.630;2023-06-04T07:54:53;0.97;;;0.97;;
26106;SDS011;13866;50.748;12.630;2023-06-04T07:57:18;4.13;;;1.67;;
26106;SDS011;13866;50.748;12.630;2023-06-04T07:59:44;12.47;;;1.60;;
26106;SDS011;13866;50.748;12.630;2023-06-04T08:02:09;3.00;;;1.57;;
26106;SDS011;13866;50.748;12.630;2023-06-04T08:04:35;3.93;;;1.83;;
26106;SDS011;13866;50.748;12.630;2023-06-04T08:07:00;1.50;;;1.50;;
26106;SDS011;13866;50.748;12.630;2023-06-04T08:09:26;1.67;;;1.60;;
26106;SDS011;13866;50.748;12.630;2023-06-04T08:11:51;1.30;;;1.30;;
26106;SDS011;13866;50.748;12.630;2023-06-04T08:14:17;1.47;;;1.20;;
26106;SDS011;13866;50.748;12.630;2023-06-04T08:16:43;1.40;;;1.30;;
26106;SDS011;13866;50.748;12.630;2023-06-04T08:19:09;2.20;;;1.50;;
26106;SDS011;13866;50.748;12.630;2023-06-04T08:21:34;1.50;;;1.50;;
26106;SDS011;13866;50.748;12.630;2023-06-04T08:24:00;1.40;;;1.40;;
26106;SDS011;13866;50.748;12.630;2023-06-04T08:26:27;1.80;;;1.80;;
26106;SDS011;13866;50.748;12.630;2023-06-04T08:28:52;1.97;;;1.20;;
26106;SDS011;13866;50.748;12.630;2023-06-04T08:31:18;1.40;;;1.40;;
26106;SDS011;13866;50.748;12.630;2023-06-04T08:33:46;1.40;;;1.40;;
26106;SDS011;13866;50.748;12.630;2023-06-04T08:36:12;2.47;;;1.30;;
26106;SDS011;13866;50.748;12.630;2023-06-04T08:38:38;1.93;;;1.60;;
26106;SDS011;13866;50.748;12.630;2023-06-04T08:41:15;1.87;;;1.43;;
26106;SDS011;13866;50.748;12.630;2023-06-04T08:43:42;3.63;;;1.40;;
26106;SDS011;13866;50.748;12.630;2023-06-04T08:46:13;1.47;;;1.47;;
26106;SDS011;13866;50.748;12.630;2023-06-04T08:48:40;1.67;;;1.67;;
26106;SDS011;13866;50.748;12.630;2023-06-04T08:51:06;5.20;;;1.20;;
26106;SDS011;13866;50.748;12.630;2023-06-04T08:53:34;1.50;;;1.43;;
26106;SDS011;13866;50.748;12.630;2023-06-04T08:56:00;2.40;;;2.30;;
26106;SDS011;13866;50.748;12.630;2023-06-04T08:58:26;2.57;;;1.20;;
26106;SDS011;13866;50.748;12.630;2023-06-04T09:00:56;1.23;;;1.23;;
26106;SDS011;13866;50.748;12.630;2023-06-04T09:03:21;1.00;;;1.00;;
26106;SDS011;13866;50.748;12.630;2023-06-04T09:05:49;2.67;;;1.17;;
26106;SDS011;13866;50.748;12.630;2023-06-04T09:08:16;3.40;;;1.20;;
26106;SDS011;13866;50.748;12.630;2023-06-04T09:10:43;2.30;;;1.57;;
26106;SDS011;13866;50.748;12.630;2023-06-04T09:13:11;1.60;;;1.50;;
26106;SDS011;13866;50.748;12.630;2023-06-04T09:15:38;0.93;;;0.93;;
26106;SDS011;13866;50.748;12.630;2023-06-04T09:18:03;1.37;;;1.27;;
26106;SDS011;13866;50.748;12.630;2023-06-04T09:20:29;1.90;;;1.37;;
26106;SDS011;13866;50.748;12.630;2023-06-04T09:22:55;1.90;;;1.80;;
26106;SDS011;13866;50.748;12.630;2023-06-04T09:25:21;1.00;;;1.00;;
26106;SDS011;13866;50.748;12.630;2023-06-04T09:27:51;1.53;;;1.53;;
26106;SDS011;13866;50.748;12.630;2023-06-04T09:30:18;11.97;;;2.00;;
26106;SDS011;13866;50.748;12.630;2023-06-04T09:32:43;2.20;;;1.47;;
26106;SDS011;13866;50.748;12.630;2023-06-04T09:37:39;0.90;;;0.90;;
26106;SDS011;13866;50.748;12.630;2023-06-04T09:40:06;3.53;;;1.30;;
26106;SDS011;13866;50.748;12.630;2023-06-04T09:42:43;1.17;;;1.17;;
26106;SDS011;13866;50.748;12.630;2023-06-04T09:45:32;1.80;;;1.70;;
26106;SDS011;13866;50.748;12.630;2023-06-04T09:48:00;1.50;;;1.50;;
26106;SDS011;13866;50.748;12.630;2023-06-04T09:50:27;3.60;;;1.23;;
26106;SDS011;13866;50.748;12.630;2023-06-04T09:52:55;3.70;;;1.57;;
26106;SDS011;13866;50.748;12.630;2023-06-04T09:55:21;1.50;;;1.50;;
26106;SDS011;13866;50.748;12.630;2023-06-04T09:57:47;1.20;;;1.20;;
26106;SDS011;13866;50.748;12.630;2023-06-04T10:00:18;11.60;;;1.57;;
26106;SDS011;13866;50.748;12.630;2023-06-04T10:02:49;1.07;;;1.07;;
26106;SDS011;13866;50.748;12.630;2023-06-04T10:05:20;1.40;;;1.40;;
26106;SDS011;13866;50.748;12.630;2023-06-04T10:07:46;1.47;;;1.47;;
26106;SDS011;13866;50.748;12.630;2023-06-04T10:10:16;1.13;;;1.13;;
26106;SDS011;13866;50.748;12.630;2023-06-04T10:12:45;4.93;;;1.77;;
26106;SDS011;13866;50.748;12.630;2023-06-04T10:15:15;4.20;;;1.43;;
26106;SDS011;13866;50.748;12.630;2023-06-04T10:17:42;4.00;;;1.50;;
26106;SDS011;13866;50.748;12.630;2023-06-04T10:20:08;1.00;;;1.00;;
26106;SDS011;13866;50.748;12.630;2023-06-04T10:22:35;2.53;;;1.37;;
26106;SDS011;13866;50.748;12.630;2023-06-04T10:25:02;1.07;;;1.07;;
26106;SDS011;13866;50.748;12.630;2023-06-04T10:27:29;1.20;;;1.10;;
26106;SDS011;13866;50.748;12.630;2023-06-04T10:29:57;1.30;;;1.30;;
26106;SDS011;13866;50.748;12.630;2023-06-04T10:32:26;1.63;;;1.40;;
26106;SDS011;13866;50.748;12.630;2023-06-04T10:34:55;1.20;;;1.20;;
26106;SDS011;13866;50.748;12.630;2023-06-04T10:37:22;1.80;;;1.60;;
26106;SDS011;13866;50.748;12.630;2023-06-04T10:39:52;1.30;;;1.30;;
26106;SDS011;13866;50.748;12.630;2023-06-04T10:42:22;1.10;;;1.00;;
26106;SDS011;13866;50.748;12.630;2023-06-04T10:44:49;7.83;;;1.30;;
26106;SDS011;13866;50.748;12.630;2023-06-04T10:47:23;1.77;;;1.10;;
26106;SDS011;13866;50.748;12.630;2023-06-04T10:49:51;8.77;;;1.30;;
26106;SDS011;13866;50.748;12.630;2023-06-04T10:52:17;2.43;;;1.17;;
26106;SDS011;13866;50.748;12.630;2023-06-04T10:54:44;4.77;;;1.63;;
26106;SDS011;13866;50.748;12.630;2023-06-04T10:57:14;2.03;;;1.20;;
26106;SDS011;13866;50.748;12.630;2023-06-04T10:59:53;1.07;;;1.07;;
26106;SDS011;13866;50.748;12.630;2023-06-04T11:02:19;1.50;;;1.10;;
26106;SDS011;13866;50.748;12.630;2023-06-04T11:04:45;2.60;;;1.33;;
26106;SDS011;13866;50.748;12.630;2023-06-04T11:07:11;1.40;;;1.40;;
26106;SDS011;13866;50.748;12.630;2023-06-04T11:09:58;5.07;;;1.93;;
26106;SDS011;13866;50.748;12.630;2023-06-04T11:12:22;1.37;;;1.30;;
26106;SDS011;13866;50.748;12.630;2023-06-04T11:14:55;1.60;;;1.50;;
26106;SDS011;13866;50.748;12.630;2023-06-04T11:17:21;1.40;;;1.30;;
26106;SDS011;13866;50.748;12.630;2023-06-04T11:19:46;1.73;;;1.70;;
26106;SDS011;13866;50.748;12.630;2023-06-04T11:22:12;4.10;;;1.20;;
26106;SDS011;13866;50.748;12.630;2023-06-04T11:24:37;1.63;;;1.40;;
26106;SDS011;13866;50.748;12.630;2023-06-04T11:27:03;1.90;;;1.80;;
26106;SDS011;13866;50.748;12.630;2023-06-04T11:29:29;1.70;;;1.40;;
26106;SDS011;13866;50.748;12.630;2023-06-04T11:31:55;1.63;;;1.53;;
26106;SDS011;13866;50.748;12.630;2023-06-04T11:34:27;3.37;;;1.80;;
26106;SDS011;13866;50.748;12.630;2023-06-04T11:36:53;1.43;;;1.40;;
26106;SDS011;13866;50.748;12.630;2023-06-04T11:39:19;1.57;;;1.47;;
26106;SDS011;13866;50.748;12.630;2023-06-04T11:41:46;2.30;;;1.60;;
26106;SDS011;13866;50.748;12.630;2023-06-04T11:44:12;2.17;;;2.07;;
26106;SDS011;13866;50.748;12.630;2023-06-04T11:46:42;1.10;;;1.10;;
26106;SDS011;13866;50.748;12.630;2023-06-04T11:49:11;1.37;;;1.37;;
26106;SDS011;13866;50.748;12.630;2023-06-04T11:51:51;6.10;;;1.30;;
26106;SDS011;13866;50.748;12.630;2023-06-04T11:54:18;4.57;;;0.90;;
26106;SDS011;13866;50.748;12.630;2023-06-04T11:56:45;1.07;;;1.07;;
26106;SDS011;13866;50.748;12.630;2023-06-04T11:59:13;1.50;;;1.20;;
26106;SDS011;13866;50.748;12.630;2023-06-04T12:01:40;3.23;;;1.70;;
26106;SDS011;13866;50.748;12.630;2023-06-04T12:04:13;1.20;;;1.20;;
26106;SDS011;13866;50.748;12.630;2023-06-04T12:06:49;1.87;;;1.87;;
26106;SDS011;13866;50.748;12.630;2023-06-04T12:09:25;1.90;;;1.80;;
26106;SDS011;13866;50.748;12.630;2023-06-04T12:11:59;4.77;;;1.57;;
26106;SDS011;13866;50.748;12.630;2023-06-04T12:14:28;1.00;;;1.00;;
26106;SDS011;13866;50.748;12.630;2023-06-04T12:16:54;1.23;;;1.23;;
26106;SDS011;13866;50.748;12.630;2023-06-04T12:19:27;1.20;;;1.20;;
26106;SDS011;13866;50.748;12.630;2023-06-04T12:22:00;1.87;;;1.33;;
26106;SDS011;13866;50.748;12.630;2023-06-04T12:24:30;1.90;;;1.20;;
26106;SDS011;13866;50.748;12.630;2023-06-04T12:27:06;1.50;;;1.50;;
26106;SDS011;13866;50.748;12.630;2023-06-04T12:29:34;1.73;;;1.07;;
26106;SDS011;13866;50.748;12.630;2023-06-04T12:32:04;2.50;;;1.03;;
26106;SDS011;13866;50.748;12.630;2023-06-04T12:34:37;2.03;;;1.93;;
26106;SDS011;13866;50.748;12.630;2023-06-04T12:37:03;7.37;;;1.30;;
26106;SDS011;13866;50.748;12.630;2023-06-04T12:39:31;8.03;;;1.40;;
26106;SDS011;13866;50.748;12.630;2023-06-04T12:41:57;1.47;;;1.47;;
26106;SDS011;13866;50.748;12.630;2023-06-04T12:44:23;1.30;;;1.30;;
26106;SDS011;13866;50.748;12.630;2023-06-04T12:46:49;1.40;;;1.40;;
26106;SDS011;13866;50.748;12.630;2023-06-04T12:49:15;1.80;;;1.23;;
26106;SDS011;13866;50.748;12.630;2023-06-04T12:51:40;4.67;;;1.33;;
26106;SDS011;13866;50.748;12.630;2023-06-04T12:54:06;1.60;;;1.50;;
26106;SDS011;13866;50.748;12.630;2023-06-04T12:56:32;1.00;;;1.00;;
26106;SDS011;13866;50.748;12.630;2023-06-04T12:58:58;1.90;;;1.90;;
26106;SDS011;13866;50.748;12.630;2023-06-04T13:01:24;1.30;;;1.30;;
26106;SDS011;13866;50.748;12.630;2023-06-04T13:03:50;2.83;;;1.37;;
26106;SDS011;13866;50.748;12.630;2023-06-04T13:06:15;7.03;;;1.70;;
26106;SDS011;13866;50.748;12.630;2023-06-04T13:08:41;3.23;;;1.30;;
26106;SDS011;13866;50.748;12.630;2023-06-04T13:11:07;4.80;;;1.33;;
26106;SDS011;13866;50.748;12.630;2023-06-04T13:13:34;1.17;;;1.07;;
26106;SDS011;13866;50.748;12.630;2023-06-04T13:16:00;17.67;;;1.53;;
26106;SDS011;13866;50.748;12.630;2023-06-04T13:18:25;2.40;;;1.00;;
26106;SDS011;13866;50.748;12.630;2023-06-04T13:20:51;5.07;;;1.60;;
26106;SDS011;13866;50.748;12.630;2023-06-04T13:23:16;2.00;;;1.43;;
26106;SDS011;13866;50.748;12.630;2023-06-04T13:25:42;5.03;;;2.20;;
26106;SDS011;13866;50.748;12.630;2023-06-04T13:28:08;2.43;;;2.33;;
26106;SDS011;13866;50.748;12.630;2023-06-04T13:30:37;2.73;;;1.20;;
26106;SDS011;13866;50.748;12.630;2023-06-04T13:33:03;1.00;;;1.00;;
26106;SDS011;13866;50.748;12.630;2023-06-04T13:35:29;3.60;;;1.53;;
26106;SDS011;13866;50.748;12.630;2023-06-04T13:37:55;2.20;;;1.13;;
26106;SDS011;13866;50.748;12.630;2023-06-04T13:40:20;5.60;;;1.50;;
26106;SDS011;13866;50.748;12.630;2023-06-04T13:42:46;1.47;;;1.47;;
26106;SDS011;13866;50.748;12.630;2023-06-04T13:45:11;4.03;;;1.20;;
26106;SDS011;13866;50.748;12.630;2023-06-04T13:47:37;1.30;;;1.30;;
26106;SDS011;13866;50.748;12.630;2023-06-04T13:50:02;1.50;;;1.40;;
26106;SDS011;13866;50.748;12.630;2023-06-04T13:52:28;3.10;;;1.30;;
26106;SDS011;13866;50.748;12.630;2023-06-04T13:54:55;2.20;;;1.13;;
26106;SDS011;13866;50.748;12.630;2023-06-04T13:57:20;2.00;;;1.00;;
26106;SDS011;13866;50.748;12.630;2023-06-04T13:59:46;1.10;;;1.10;;
26106;SDS011;13866;50.748;12.630;2023-06-04T14:02:13;1.10;;;1.10;;
26106;SDS011;13866;50.748;12.630;2023-06-04T14:04:40;1.40;;;1.30;;
26106;SDS011;13866;50.748;12.630;2023-06-04T14:07:05;3.07;;;1.57;;
26106;SDS011;13866;50.748;12.630;2023-06-04T14:09:31;1.83;;;1.57;;
26106;SDS011;13866;50.748;12.630;2023-06-04T14:11:56;1.10;;;1.07;;
26106;SDS011;13866;50.748;12.630;2023-06-04T14:14:22;1.13;;;1.13;;
26106;SDS011;13866;50.748;12.630;2023-06-04T14:16:48;2.93;;;1.20;;
26106;SDS011;13866;50.748;12.630;2023-06-04T14:19:14;1.77;;;1.67;;
26106;SDS011;13866;50.748;12.630;2023-06-04T14:21:40;1.07;;;1.07;;
26106;SDS011;13866;50.748;12.630;2023-06-04T14:24:06;1.83;;;1.60;;
26106;SDS011;13866;50.748;12.630;2023-06-04T14:26:32;1.30;;;1.17;;
26106;SDS011;13866;50.748;12.630;2023-06-04T14:28:58;7.50;;;1.30;;
26106;SDS011;13866;50.748;12.630;2023-06-04T14:31:24;2.10;;;2.10;;
26106;SDS011;13866;50.748;12.630;2023-06-04T14:33:49;1.40;;;1.10;;
26106;SDS011;13866;50.748;12.630;2023-06-04T14:36:15;1.50;;;1.40;;
26106;SDS011;13866;50.748;12.630;2023-06-04T14:38:40;1.47;;;1.47;;
26106;SDS011;13866;50.748;12.630;2023-06-04T14:41:06;2.83;;;1.50;;